Time;durP1;ratioP1;P1;durP2;ratioP2;P2;SDS_P1;SDS_P2;PMS_P1;PMS_P2;Temp;Humidity;BMP_temperature;BMP_pressure;BME280_temperature;BME280_humidity;BME280_pressure;Samples;Min_cycle;Max_cycle;Signal;HPM_P1;HPM_P2
2021/12/02 00:00:45;;;;;;;1.77;1.10;;;6.40;70.60;;;;;;5073885;28;46437;-66
2021/12/02 00:03:12;;;;;;;1.47;1.10;;;6.40;70.70;;;;;;5070589;28;46455;-66
2021/12/02 00:05:38;;;;;;;1.80;1.30;;;6.30;70.80;;;;;;5075179;27;46120;-67
2021/12/02 00:08:04;;;;;;;2.20;1.50;;;6.30;71.00;;;;;;5069598;27;45909;-65
2021/12/02 00:21:52;;;;;;;1.60;1.10;;;6.00;71.80;;;;;;5074454;28;46264;-66
2021/12/02 00:24:20;;;;;;;1.77;1.20;;;5.90;71.90;;;;;;5068428;28;46458;-66
2021/12/02 00:26:49;;;;;;;1.53;1.23;;;5.90;72.10;;;;;;5070643;28;46395;-66
2021/12/02 00:29:19;;;;;;;2.07;1.50;;;5.90;72.20;;;;;;5077245;28;46458;-68
2021/12/02 00:31:46;;;;;;;1.83;1.20;;;5.80;72.30;;;;;;5069745;28;46650;-67
2021/12/02 00:34:12;;;;;;;1.20;0.97;;;5.80;72.40;;;;;;5070711;28;46507;-66
2021/12/02 00:36:40;;;;;;;1.30;0.97;;;5.70;72.60;;;;;;5068242;27;46281;-67
2021/12/02 00:39:17;;;;;;;2.07;1.37;;;5.70;72.60;;;;;;5074895;28;45892;-67
2021/12/02 00:41:44;;;;;;;1.47;1.03;;;5.60;72.70;;;;;;5073793;28;48014;-68
2021/12/02 00:44:12;;;;;;;1.60;1.30;;;5.60;72.90;;;;;;5070283;28;46613;-65
2021/12/02 00:46:38;;;;;;;2.43;1.27;;;5.50;73.00;;;;;;5072539;27;46427;-66
2021/12/02 00:49:11;;;;;;;1.63;1.20;;;5.50;73.20;;;;;;5072552;28;46474;-66
2021/12/02 00:51:38;;;;;;;1.50;1.20;;;5.50;73.30;;;;;;5084531;27;47863;-66
2021/12/02 00:54:07;;;;;;;1.40;1.10;;;5.40;73.40;;;;;;5070000;28;46430;-66
2021/12/02 00:56:34;;;;;;;1.80;1.40;;;5.50;73.70;;;;;;5072852;28;46285;-66
2021/12/02 00:59:00;;;;;;;2.43;1.10;;;5.40;73.60;;;;;;5077693;28;46399;-66
2021/12/02 01:01:34;;;;;;;1.47;0.97;;;5.40;73.60;;;;;;5078170;28;48986;-66
2021/12/02 01:04:00;;;;;;;1.37;1.00;;;5.40;73.90;;;;;;5073816;28;46461;-67
2021/12/02 01:06:27;;;;;;;1.40;0.90;;;5.40;74.80;;;;;;5073445;28;45771;-66
2021/12/02 01:08:53;;;;;;;3.53;1.23;;;5.40;73.70;;;;;;5069576;27;46433;-66
2021/12/02 01:11:20;;;;;;;1.00;0.80;;;5.40;73.70;;;;;;5069615;28;47817;-66
2021/12/02 01:13:47;;;;;;;1.20;0.80;;;5.40;74.00;;;;;;5070521;28;46458;-66
2021/12/02 01:16:13;;;;;;;1.90;1.00;;;5.30;74.00;;;;;;5076038;28;45881;-66
2021/12/02 01:18:40;;;;;;;1.70;0.90;;;5.30;73.90;;;;;;5072138;27;46651;-66
2021/12/02 01:21:07;;;;;;;2.60;0.93;;;5.30;73.90;;;;;;5071165;27;46597;-66
2021/12/02 01:23:33;;;;;;;1.97;0.90;;;5.20;73.80;;;;;;5064060;27;46386;-66
2021/12/02 01:26:07;;;;;;;1.90;0.90;;;5.20;73.80;;;;;;5065450;28;46418;-66
2021/12/02 01:28:34;;;;;;;1.50;1.00;;;5.20;73.80;;;;;;5069266;28;46379;-66
2021/12/02 01:30:59;;;;;;;5.10;1.00;;;5.20;74.30;;;;;;5068694;28;46414;-66
2021/12/02 01:33:27;;;;;;;1.67;0.80;;;5.20;73.80;;;;;;5072167;27;46393;-66
2021/12/02 01:36:01;;;;;;;1.67;1.10;;;5.20;73.90;;;;;;5073788;28;46369;-66
2021/12/02 01:38:29;;;;;;;1.40;0.80;;;5.20;73.80;;;;;;5072753;27;46229;-65
2021/12/02 01:40:56;;;;;;;1.80;1.00;;;5.30;73.90;;;;;;5073902;27;46447;-66
2021/12/02 01:43:45;;;;;;;1.40;0.90;;;5.30;73.90;;;;;;5065880;28;45916;-66
2021/12/02 01:46:14;;;;;;;1.20;0.90;;;5.30;73.90;;;;;;5075572;28;46590;-65
2021/12/02 01:48:42;;;;;;;2.63;1.03;;;5.40;73.40;;;;;;5067745;28;46351;-66
2021/12/02 01:51:11;;;;;;;1.53;0.90;;;5.50;73.10;;;;;;5068977;28;46521;-65
2021/12/02 01:53:39;;;;;;;3.13;0.90;;;5.70;72.60;;;;;;5066279;28;46422;-65
2021/12/02 01:56:14;;;;;;;1.90;0.80;;;5.80;72.30;;;;;;5070751;28;46444;-65
2021/12/02 01:58:44;;;;;;;1.67;0.87;;;5.90;72.10;;;;;;5065834;28;46506;-66
2021/12/02 02:01:15;;;;;;;2.57;1.10;;;6.00;71.80;;;;;;5062785;28;46537;-66
2021/12/02 02:03:42;;;;;;;1.50;1.13;;;6.10;71.60;;;;;;5068901;27;46527;-66
2021/12/02 02:06:09;;;;;;;1.60;0.97;;;6.10;71.80;;;;;;5069812;28;46398;-67
2021/12/02 02:08:38;;;;;;;1.83;1.00;;;6.20;72.10;;;;;;5074810;28;46575;-66
2021/12/02 02:11:04;;;;;;;1.77;1.00;;;6.00;73.20;;;;;;5077052;28;48064;-66
2021/12/02 02:13:29;;;;;;;1.73;0.90;;;5.90;74.50;;;;;;5073267;28;46421;-66
2021/12/02 02:15:55;;;;;;;2.13;1.00;;;5.90;74.50;;;;;;5070566;28;46564;-66
2021/12/02 02:18:22;;;;;;;1.30;0.80;;;5.90;75.60;;;;;;5071779;27;46547;-66
2021/12/02 02:21:06;;;;;;;1.30;0.83;;;5.90;74.50;;;;;;5070645;28;47927;-66
2021/12/02 02:23:37;;;;;;;1.67;0.80;;;5.90;74.40;;;;;;5075159;28;46475;-67
2021/12/02 02:26:03;;;;;;;4.90;1.17;;;6.00;74.40;;;;;;5075100;27;46501;-67
2021/12/02 02:28:29;;;;;;;1.10;0.90;;;6.10;73.90;;;;;;5074073;28;46370;-67
2021/12/02 02:30:55;;;;;;;1.40;1.10;;;6.10;73.80;;;;;;5071101;27;47896;-67
2021/12/02 02:33:22;;;;;;;1.33;1.10;;;6.10;74.30;;;;;;5075625;28;46485;-67
2021/12/02 02:35:49;;;;;;;1.47;1.00;;;6.00;74.50;;;;;;5073322;28;46402;-66
2021/12/02 02:38:15;;;;;;;2.33;1.13;;;6.00;74.50;;;;;;5072579;28;46454;-66
2021/12/02 02:40:44;;;;;;;2.33;1.33;;;5.90;76.30;;;;;;5069096;28;47867;-66
2021/12/02 02:43:19;;;;;;;0.90;0.70;;;5.90;76.80;;;;;;5072311;27;46423;-66
2021/12/02 02:45:44;;;;;;;1.10;0.63;;;5.70;76.70;;;;;;5074144;27;46374;-66
2021/12/02 02:48:10;;;;;;;0.83;0.60;;;5.40;76.90;;;;;;5075331;28;46585;-65
2021/12/02 02:50:36;;;;;;;0.87;0.63;;;5.20;77.50;;;;;;5074138;27;47883;-67
2021/12/02 02:53:12;;;;;;;0.83;0.60;;;5.00;78.10;;;;;;5073415;28;46494;-66
2021/12/02 02:55:40;;;;;;;4.83;0.80;;;4.80;78.30;;;;;;5077286;28;46363;-66
2021/12/02 02:58:16;;;;;;;1.30;0.60;;;4.80;78.60;;;;;;5073075;27;46500;-66
2021/12/02 03:00:54;;;;;;;1.93;0.77;;;4.80;78.80;;;;;;5075520;28;48779;-67
2021/12/02 03:03:46;;;;;;;1.20;0.60;;;4.70;79.00;;;;;;5068922;28;46389;-68
2021/12/02 03:06:35;;;;;;;3.70;0.73;;;4.60;79.50;;;;;;5076992;27;46666;-67
2021/12/02 03:09:09;;;;;;;2.13;0.83;;;4.60;80.20;;;;;;5074127;28;46438;-66
2021/12/02 03:11:53;;;;;;;1.10;0.60;;;4.60;80.50;;;;;;5070775;28;48721;-64
2021/12/02 03:14:28;;;;;;;1.40;0.67;;;4.60;80.90;;;;;;5069178;28;46688;-68
2021/12/02 03:16:54;;;;;;;1.50;0.60;;;4.70;80.70;;;;;;5073196;28;46474;-67
2021/12/02 03:19:25;;;;;;;1.47;0.70;;;4.80;80.30;;;;;;5070462;27;46607;-68
2021/12/02 03:21:52;;;;;;;1.00;0.60;;;4.80;80.20;;;;;;5077940;28;49023;-67
2021/12/02 03:24:18;;;;;;;3.37;1.13;;;4.70;80.70;;;;;;5072844;27;46516;-65
2021/12/02 03:26:44;;;;;;;2.10;0.80;;;4.70;81.20;;;;;;5069464;28;45869;-65
2021/12/02 03:29:09;;;;;;;2.00;0.77;;;4.80;81.20;;;;;;5072268;28;46331;-64
2021/12/02 03:31:35;;;;;;;1.77;1.00;;;4.80;81.10;;;;;;5075411;28;46403;-66
2021/12/02 03:34:03;;;;;;;1.07;0.70;;;4.80;81.10;;;;;;5072668;28;46363;-66
2021/12/02 03:36:29;;;;;;;2.20;0.70;;;4.90;80.60;;;;;;5069921;28;46329;-67
2021/12/02 03:38:55;;;;;;;0.90;0.60;;;5.00;80.20;;;;;;5074686;28;46597;-67
2021/12/02 03:41:22;;;;;;;0.90;0.60;;;5.00;80.00;;;;;;5075657;27;46338;-67
2021/12/02 03:43:49;;;;;;;2.23;0.70;;;5.10;80.00;;;;;;5076227;27;45877;-67
2021/12/02 03:46:20;;;;;;;2.70;0.70;;;5.00;80.30;;;;;;5072003;27;46451;-67
2021/12/02 03:48:47;;;;;;;1.00;0.70;;;5.00;80.50;;;;;;5065636;28;46407;-66
2021/12/02 03:51:13;;;;;;;0.80;0.60;;;5.00;80.60;;;;;;5071367;28;46619;-66
2021/12/02 03:53:39;;;;;;;1.48;0.60;;;5.00;80.70;;;;;;5070496;28;46552;-66
2021/12/02 03:56:07;;;;;;;0.80;0.60;;;5.00;80.60;;;;;;5077507;28;46438;-66
2021/12/02 03:58:38;;;;;;;1.00;0.60;;;5.00;80.70;;;;;;5073129;27;46571;-66
2021/12/02 04:01:05;;;;;;;1.00;0.70;;;5.00;80.90;;;;;;5088146;27;48044;-67
2021/12/02 04:03:32;;;;;;;0.80;0.60;;;5.10;80.90;;;;;;5074893;28;46691;-66
2021/12/02 04:05:58;;;;;;;1.10;0.80;;;5.20;80.50;;;;;;5074282;28;46293;-66
2021/12/02 04:13:50;;;;;;;1.60;1.00;;;5.40;79.20;;;;;;5073542;28;46532;-67
2021/12/02 04:16:18;;;;;;;6.40;0.97;;;5.40;79.10;;;;;;5070001;28;46428;-66
2021/12/02 04:18:44;;;;;;;1.50;1.00;;;5.40;79.30;;;;;;5069628;28;46609;-66
2021/12/02 04:21:10;;;;;;;2.97;1.00;;;5.40;79.50;;;;;;5071418;27;48868;-67
2021/12/02 04:23:36;;;;;;;1.33;0.97;;;5.40;79.70;;;;;;5072044;27;45767;-65
2021/12/02 04:26:03;;;;;;;1.37;0.90;;;5.40;80.10;;;;;;5070252;28;46416;-66
2021/12/02 04:28:28;;;;;;;2.90;0.93;;;5.40;80.40;;;;;;5070715;27;46465;-67
2021/12/02 04:30:54;;;;;;;1.73;0.90;;;5.40;80.50;;;;;;5072153;27;46399;-67
2021/12/02 04:33:20;;;;;;;1.50;0.90;;;5.40;80.40;;;;;;5066787;28;46513;-67
2021/12/02 04:35:45;;;;;;;9.40;1.60;;;5.40;80.40;;;;;;5073663;28;46462;-67
2021/12/02 04:38:11;;;;;;;1.87;1.17;;;5.40;80.20;;;;;;5075104;27;46038;-66
2021/12/02 04:40:41;;;;;;;1.50;1.10;;;5.50;80.10;;;;;;5069804;28;46413;-66
2021/12/02 04:43:06;;;;;;;1.60;1.33;;;5.50;80.00;;;;;;5066434;28;46793;-67
2021/12/02 04:45:32;;;;;;;1.60;1.13;;;5.50;79.60;;;;;;5071291;28;46385;-67
2021/12/02 04:47:58;;;;;;;1.40;1.20;;;5.60;79.30;;;;;;5073459;28;45832;-66
2021/12/02 04:50:24;;;;;;;2.27;1.00;;;5.70;79.00;;;;;;5069875;28;48974;-66
2021/12/02 04:52:50;;;;;;;1.40;1.10;;;5.70;78.70;;;;;;5071355;28;46575;-66
2021/12/02 04:55:16;;;;;;;2.40;1.50;;;5.80;78.70;;;;;;5072253;28;46564;-66
2021/12/02 04:57:42;;;;;;;1.80;1.10;;;5.80;78.50;;;;;;5069868;27;46468;-66
2021/12/02 05:13:36;;;;;;;3.53;1.47;;;5.80;77.90;;;;;;5065911;27;46431;-66
2021/12/02 05:16:02;;;;;;;1.20;1.10;;;5.80;78.00;;;;;;5073691;28;46619;-67
2021/12/02 05:18:28;;;;;;;2.77;1.20;;;5.80;77.80;;;;;;5073829;28;46354;-68
2021/12/02 05:20:54;;;;;;;1.17;1.00;;;5.90;77.90;;;;;;5070888;28;45906;-65
2021/12/02 05:23:20;;;;;;;1.90;1.60;;;5.90;77.70;;;;;;5069719;27;47753;-66
2021/12/02 05:25:46;;;;;;;2.23;1.20;;;5.90;78.10;;;;;;5070616;27;46372;-67
2021/12/02 05:28:15;;;;;;;1.60;1.20;;;5.90;77.70;;;;;;5075011;27;46362;-66
2021/12/02 05:30:41;;;;;;;1.80;1.20;;;5.90;77.50;;;;;;5069551;27;46516;-68
2021/12/02 05:33:07;;;;;;;2.63;1.30;;;5.90;77.40;;;;;;5068067;28;49146;-68
2021/12/02 05:35:33;;;;;;;1.67;1.40;;;5.90;77.90;;;;;;5075681;27;46424;-67
2021/12/02 05:37:58;;;;;;;3.67;1.20;;;5.80;78.00;;;;;;5069504;27;46433;-68
2021/12/02 05:40:24;;;;;;;3.10;1.20;;;5.80;77.80;;;;;;5071903;27;46377;-67
2021/12/02 05:42:50;;;;;;;1.67;1.00;;;5.80;77.60;;;;;;5077004;27;48287;-68
2021/12/02 05:45:15;;;;;;;2.40;1.20;;;5.90;77.50;;;;;;5068901;27;46446;-66
2021/12/02 05:47:41;;;;;;;1.97;1.30;;;5.90;77.20;;;;;;5080115;27;46439;-67
2021/12/02 05:50:07;;;;;;;1.40;0.80;;;5.90;77.00;;;;;;5076986;27;46323;-67
2021/12/02 05:52:33;;;;;;;0.97;0.70;;;5.90;77.00;;;;;;5073003;27;48365;-67
2021/12/02 05:54:59;;;;;;;2.83;0.90;;;5.90;76.90;;;;;;5070219;28;46330;-68
2021/12/02 05:57:25;;;;;;;1.97;1.07;;;5.80;76.80;;;;;;5073182;28;46402;-66
2021/12/02 05:59:51;;;;;;;1.57;1.00;;;5.80;76.90;;;;;;5075278;28;46359;-67
2021/12/02 06:02:16;;;;;;;3.50;1.10;;;5.80;76.90;;;;;;5079656;28;48119;-65
2021/12/02 06:04:44;;;;;;;3.23;1.13;;;5.70;76.80;;;;;;5071859;28;46231;-67
2021/12/02 06:07:10;;;;;;;1.60;0.90;;;5.80;76.50;;;;;;5071841;28;46502;-67
2021/12/02 06:09:36;;;;;;;1.53;1.00;;;5.80;76.30;;;;;;5075121;27;46652;-65
2021/12/02 06:12:02;;;;;;;1.70;1.10;;;5.80;76.30;;;;;;5069976;28;47882;-65
2021/12/02 06:14:27;;;;;;;2.80;0.93;;;5.80;77.30;;;;;;5072245;27;46217;-65
2021/12/02 06:16:53;;;;;;;2.70;0.80;;;5.80;75.90;;;;;;5074959;28;46485;-67
2021/12/02 06:19:19;;;;;;;1.73;1.03;;;5.80;75.70;;;;;;5075807;28;46613;-67
2021/12/02 06:21:45;;;;;;;3.03;1.00;;;5.80;75.80;;;;;;5075146;28;46687;-67
2021/12/02 06:24:11;;;;;;;1.60;1.00;;;5.70;76.10;;;;;;5071323;27;46592;-66
2021/12/02 06:26:37;;;;;;;1.57;1.10;;;5.40;76.40;;;;;;5073759;27;46372;-65
2021/12/02 06:29:03;;;;;;;1.87;0.90;;;5.20;77.00;;;;;;5071839;28;46573;-66
2021/12/02 06:31:29;;;;;;;2.20;1.03;;;5.20;77.00;;;;;;5075292;27;47964;-66
2021/12/02 06:33:54;;;;;;;1.10;1.00;;;5.20;76.90;;;;;;5070841;27;46346;-65
2021/12/02 06:36:20;;;;;;;2.07;1.13;;;5.30;76.60;;;;;;5073663;28;46915;-67
2021/12/02 06:38:46;;;;;;;1.90;1.30;;;5.40;76.20;;;;;;5070948;28;46449;-66
2021/12/02 06:41:12;;;;;;;1.60;1.10;;;5.40;75.80;;;;;;5070354;27;47938;-66
2021/12/02 06:43:37;;;;;;;2.20;1.07;;;5.50;75.50;;;;;;5074156;27;47306;-65
2021/12/02 06:46:03;;;;;;;3.67;2.57;;;5.60;75.30;;;;;;5071453;28;46469;-66
2021/12/02 06:48:29;;;;;;;3.23;1.60;;;5.60;75.20;;;;;;5076294;28;46415;-65
2021/12/02 06:50:55;;;;;;;3.60;1.90;;;5.70;74.80;;;;;;5074141;27;46305;-65
2021/12/02 06:53:20;;;;;;;1.80;1.47;;;5.70;74.30;;;;;;5074539;28;46450;-67
2021/12/02 06:55:46;;;;;;;1.00;0.80;;;5.80;74.40;;;;;;5075973;28;45805;-66
2021/12/02 06:58:12;;;;;;;2.23;1.00;;;5.80;74.30;;;;;;5076244;28;46474;-66
2021/12/02 07:00:37;;;;;;;3.80;1.27;;;5.90;74.50;;;;;;5068610;28;48105;-66
2021/12/02 07:03:03;;;;;;;1.37;1.00;;;5.90;74.40;;;;;;5066966;28;46425;-66
2021/12/02 07:05:32;;;;;;;5.20;1.40;;;5.90;74.50;;;;;;5071116;27;46488;-65
2021/12/02 07:07:58;;;;;;;1.53;1.13;;;5.90;74.40;;;;;;5069473;28;46783;-65
2021/12/02 07:10:25;;;;;;;2.03;1.00;;;5.80;74.40;;;;;;5074062;28;47994;-66
2021/12/02 07:12:56;;;;;;;1.95;1.20;;;5.90;74.40;;;;;;5072397;28;46333;-66
2021/12/02 07:15:31;;;;;;;2.17;1.70;;;5.80;74.40;;;;;;5074648;27;46330;-65
2021/12/02 07:17:59;;;;;;;1.97;1.20;;;5.80;74.30;;;;;;5076294;28;46414;-65
2021/12/02 07:20:27;;;;;;;2.22;1.15;;;5.80;74.30;;;;;;5074417;28;47897;-66
2021/12/02 07:22:53;;;;;;;6.03;1.07;;;5.70;74.20;;;;;;5069491;28;45897;-66
2021/12/02 07:25:19;;;;;;;1.80;1.00;;;5.80;74.30;;;;;;5070366;28;46694;-66
2021/12/02 07:27:47;;;;;;;2.53;1.40;;;5.80;74.40;;;;;;5073160;28;46380;-66
2021/12/02 07:30:13;;;;;;;2.90;1.17;;;5.80;74.30;;;;;;5073601;28;47961;-65
2021/12/02 07:32:40;;;;;;;5.20;1.40;;;5.80;74.40;;;;;;5074702;28;46451;-66
2021/12/02 07:35:14;;;;;;;1.93;0.97;;;5.80;74.40;;;;;;5073929;28;46368;-66
2021/12/02 07:38:00;;;;;;;2.03;1.23;;;5.80;74.30;;;;;;5078793;28;46594;-66
2021/12/02 07:40:28;;;;;;;3.17;1.10;;;5.80;74.30;;;;;;5072180;28;47181;-65
2021/12/02 07:42:55;;;;;;;4.10;1.40;;;5.90;73.90;;;;;;5068470;28;45795;-66
2021/12/02 07:45:23;;;;;;;1.33;0.90;;;6.00;73.60;;;;;;5070386;28;46441;-66
2021/12/02 07:47:50;;;;;;;10.17;5.90;;;6.00;73.50;;;;;;5073051;28;46510;-66
2021/12/02 07:50:17;;;;;;;3.97;2.20;;;6.10;73.30;;;;;;5071566;28;48153;-66
2021/12/02 07:52:48;;;;;;;3.63;2.00;;;6.20;73.10;;;;;;5076181;28;46454;-65
2021/12/02 07:55:15;;;;;;;3.30;1.67;;;6.30;72.70;;;;;;5068769;28;46340;-66
2021/12/02 07:57:43;;;;;;;2.10;1.20;;;6.30;72.70;;;;;;5070934;27;46651;-67
2021/12/02 08:00:11;;;;;;;3.60;1.20;;;6.40;72.60;;;;;;5072124;28;48057;-67
2021/12/02 08:02:38;;;;;;;2.10;1.10;;;6.40;72.20;;;;;;5076046;28;46678;-67
2021/12/02 08:05:04;;;;;;;1.88;0.95;;;6.50;72.20;;;;;;5072076;27;46461;-65
2021/12/02 08:07:31;;;;;;;2.60;0.93;;;6.50;71.90;;;;;;5073615;28;46434;-66
2021/12/02 08:09:57;;;;;;;4.63;1.47;;;6.50;71.90;;;;;;5071072;27;47925;-66
2021/12/02 08:12:22;;;;;;;4.73;1.40;;;6.50;71.90;;;;;;5071278;27;46399;-68
2021/12/02 08:14:49;;;;;;;2.73;1.23;;;6.50;71.60;;;;;;5069543;28;46374;-66
2021/12/02 08:17:15;;;;;;;2.17;1.30;;;6.40;71.70;;;;;;5071246;27;46602;-66
2021/12/02 08:19:42;;;;;;;2.37;1.80;;;6.40;71.70;;;;;;5070638;28;46555;-67
2021/12/02 08:22:07;;;;;;;3.30;1.20;;;6.40;71.80;;;;;;5071013;28;46245;-67
2021/12/02 08:24:33;;;;;;;1.40;1.00;;;6.40;71.60;;;;;;5071400;27;46365;-67
2021/12/02 08:26:59;;;;;;;6.63;1.10;;;6.50;71.50;;;;;;5067942;28;46372;-67
2021/12/02 08:29:25;;;;;;;1.97;1.10;;;6.60;71.30;;;;;;5073974;28;47326;-67
2021/12/02 08:31:50;;;;;;;3.40;1.17;;;6.50;71.10;;;;;;5073094;27;46075;-67
2021/12/02 08:34:21;;;;;;;4.47;1.33;;;6.60;71.00;;;;;;5074322;27;45916;-67
2021/12/02 08:36:55;;;;;;;6.57;1.27;;;6.60;71.00;;;;;;5073396;27;46704;-66
2021/12/02 08:39:25;;;;;;;2.93;1.33;;;6.70;70.90;;;;;;5078972;28;46419;-66
2021/12/02 08:41:53;;;;;;;2.13;1.20;;;6.70;70.50;;;;;;5069336;27;46265;-66
2021/12/02 08:44:19;;;;;;;2.87;1.30;;;6.80;70.50;;;;;;5074223;28;46609;-66
2021/12/02 08:46:47;;;;;;;2.50;1.03;;;6.80;70.30;;;;;;5070650;28;46454;-67
2021/12/02 08:49:13;;;;;;;3.90;1.40;;;6.90;70.20;;;;;;5070493;28;46382;-66
2021/12/02 08:51:39;;;;;;;2.27;1.17;;;7.00;69.80;;;;;;5069532;28;46461;-66
2021/12/02 08:54:05;;;;;;;1.70;1.10;;;7.10;69.60;;;;;;5072389;28;46348;-67
2021/12/02 08:56:31;;;;;;;3.07;1.00;;;7.10;69.60;;;;;;5072867;28;46509;-66
2021/12/02 08:58:58;;;;;;;2.50;1.10;;;7.10;69.40;;;;;;5073663;28;47953;-64
2021/12/02 09:01:25;;;;;;;3.95;1.35;;;7.00;69.70;;;;;;5068456;28;46306;-66
2021/12/02 09:03:51;;;;;;;6.47;1.40;;;6.80;69.40;;;;;;5071754;27;46335;-65
2021/12/02 09:06:21;;;;;;;1.90;1.10;;;6.80;69.70;;;;;;5070287;27;45902;-64
2021/12/02 09:08:47;;;;;;;5.03;1.83;;;6.70;69.80;;;;;;5074987;28;46506;-66
2021/12/02 09:11:13;;;;;;;7.77;1.87;;;6.80;69.50;;;;;;5072857;27;46345;-66
2021/12/02 09:13:38;;;;;;;6.50;1.30;;;7.00;69.20;;;;;;5071570;28;46493;-66
2021/12/02 09:16:04;;;;;;;5.50;3.70;;;7.20;69.00;;;;;;5071688;27;46529;-66
2021/12/02 09:18:30;;;;;;;2.80;1.40;;;7.30;68.50;;;;;;5080147;28;46372;-66
2021/12/02 09:20:57;;;;;;;3.13;1.20;;;7.40;68.40;;;;;;5070702;28;46442;-65
2021/12/02 09:23:23;;;;;;;1.70;1.00;;;7.30;68.40;;;;;;5073075;27;46440;-66
2021/12/02 09:25:49;;;;;;;6.50;1.10;;;7.30;68.40;;;;;;5072583;27;46513;-66
2021/12/02 09:28:15;;;;;;;1.97;0.97;;;7.30;68.40;;;;;;5070372;27;46458;-66
2021/12/02 09:30:42;;;;;;;3.10;1.30;;;7.30;68.40;;;;;;5069795;28;46427;-66
2021/12/02 09:33:08;;;;;;;4.13;1.20;;;7.30;68.10;;;;;;5074653;28;46662;-66
2021/12/02 09:35:35;;;;;;;8.40;1.33;;;7.30;68.20;;;;;;5077002;28;46288;-66
2021/12/02 09:38:02;;;;;;;2.60;1.00;;;7.10;69.60;;;;;;5076807;28;48020;-65
2021/12/02 09:40:28;;;;;;;7.63;1.40;;;7.10;68.80;;;;;;5075798;27;46761;-65
2021/12/02 09:42:54;;;;;;;3.13;1.50;;;7.10;68.70;;;;;;5075633;27;46482;-66
2021/12/02 09:45:19;;;;;;;5.00;1.20;;;7.10;68.30;;;;;;5074413;28;46643;-66
2021/12/02 09:47:48;;;;;;;2.23;1.10;;;7.20;68.20;;;;;;5073261;27;46508;-66
2021/12/02 09:50:21;;;;;;;2.30;1.10;;;7.30;68.50;;;;;;5073369;27;46396;-66
2021/12/02 09:52:47;;;;;;;4.17;1.60;;;7.40;68.20;;;;;;5068918;28;46472;-66
2021/12/02 09:55:33;;;;;;;2.20;1.13;;;7.50;68.10;;;;;;5073459;27;46513;-67
2021/12/02 09:58:00;;;;;;;3.47;1.40;;;7.50;69.10;;;;;;5077623;27;47195;-66
2021/12/02 10:00:44;;;;;;;3.00;1.20;;;7.50;68.10;;;;;;5074790;28;45834;-66
2021/12/02 10:06:22;;;;;;;5.20;1.53;;;7.70;67.00;;;;;;5069477;28;46446;-66
2021/12/02 10:11:27;;;;;;;4.53;1.30;;;8.10;66.50;;;;;;5072234;28;46287;-65
2021/12/02 10:14:00;;;;;;;4.60;1.33;;;8.10;66.30;;;;;;5077696;27;46309;-66
2021/12/02 10:22:14;;;;;;;3.33;1.30;;;8.10;66.40;;;;;;5069674;27;46333;-66
2021/12/02 10:24:16;;;;;;;4.80;1.10;;;8.00;66.30;;;;;;5058587;28;46545;-67
2021/12/02 10:26:49;;;;;;;4.93;1.43;;;8.00;66.20;;;;;;5069656;27;46631;-67
2021/12/02 10:29:27;;;;;;;6.43;1.43;;;8.00;66.40;;;;;;5074380;28;46391;-66
2021/12/02 10:32:05;;;;;;;4.60;1.30;;;8.00;66.20;;;;;;5078215;28;46489;-67
2021/12/02 10:34:31;;;;;;;5.93;1.27;;;8.10;66.10;;;;;;5070360;28;46395;-67
2021/12/02 10:37:10;;;;;;;4.03;2.03;;;8.20;65.80;;;;;;5076536;28;46323;-67
2021/12/02 10:39:36;;;;;;;8.30;4.80;;;8.20;65.70;;;;;;5071557;28;47066;-65
2021/12/02 10:42:06;;;;;;;4.70;1.10;;;8.20;65.80;;;;;;5076214;28;46481;-64
2021/12/02 10:44:35;;;;;;;6.77;2.60;;;8.20;65.80;;;;;;5073456;28;46335;-64
2021/12/02 10:47:14;;;;;;;2.17;1.10;;;8.10;65.70;;;;;;5084966;28;46546;-65
2021/12/02 10:49:53;;;;;;;3.90;1.73;;;8.10;65.70;;;;;;5085471;28;46604;-64
2021/12/02 10:52:31;;;;;;;2.93;1.40;;;8.10;65.60;;;;;;5072843;28;46383;-64
2021/12/02 10:55:07;;;;;;;2.70;0.90;;;8.10;65.60;;;;;;5085819;27;45870;-66
2021/12/02 10:57:39;;;;;;;8.27;1.43;;;8.20;65.20;;;;;;5076509;28;45876;-66
2021/12/02 11:00:07;;;;;;;2.33;1.00;;;8.20;65.10;;;;;;5074287;27;48327;-66
2021/12/02 11:02:46;;;;;;;2.90;1.00;;;8.20;64.80;;;;;;5077468;27;45755;-66
2021/12/02 11:05:20;;;;;;;5.10;1.17;;;8.20;64.80;;;;;;5079527;28;46139;-67
2021/12/02 11:08:07;;;;;;;2.83;1.30;;;8.30;64.20;;;;;;5077120;28;45976;-67
2021/12/02 11:10:37;;;;;;;5.73;0.90;;;8.50;64.10;;;;;;5070717;28;49078;-66
2021/12/02 11:13:04;;;;;;;2.37;1.10;;;8.60;64.20;;;;;;5070211;27;46387;-66
2021/12/02 11:15:31;;;;;;;2.97;0.90;;;8.60;63.70;;;;;;5070767;28;46430;-66
2021/12/02 11:18:06;;;;;;;3.80;1.20;;;8.60;64.10;;;;;;5072817;28;46549;-66
2021/12/02 11:20:36;;;;;;;2.10;0.97;;;8.50;63.30;;;;;;5072856;28;47998;-67
2021/12/02 11:23:04;;;;;;;2.13;1.00;;;8.50;63.90;;;;;;5080216;28;46486;-65
2021/12/02 11:25:33;;;;;;;3.30;1.27;;;8.40;64.00;;;;;;5079776;27;46349;-66
2021/12/02 11:28:05;;;;;;;2.70;1.23;;;8.30;63.90;;;;;;5074272;28;46546;-66
2021/12/02 11:30:32;;;;;;;2.30;1.20;;;8.10;63.80;;;;;;5080127;28;48256;-66
2021/12/02 11:33:06;;;;;;;6.10;2.13;;;8.10;63.80;;;;;;5066336;28;46411;-66
2021/12/02 11:35:37;;;;;;;4.33;1.33;;;7.90;63.60;;;;;;5081168;28;46375;-66
2021/12/02 11:38:17;;;;;;;3.77;1.00;;;7.80;63.80;;;;;;5078400;28;45823;-66
2021/12/02 11:40:50;;;;;;;2.67;1.10;;;7.80;63.90;;;;;;5071976;28;47265;-66
2021/12/02 11:43:23;;;;;;;1.73;1.03;;;7.90;63.70;;;;;;5073374;27;46295;-66
2021/12/02 11:45:51;;;;;;;2.20;1.67;;;8.00;63.70;;;;;;5074113;27;46371;-67
2021/12/02 11:48:41;;;;;;;2.60;1.30;;;8.10;63.80;;;;;;5073484;28;46478;-66
2021/12/02 11:51:10;;;;;;;4.73;1.27;;;8.10;63.90;;;;;;5087852;27;46465;-66
2021/12/02 11:53:36;;;;;;;2.87;1.00;;;8.00;63.70;;;;;;5069477;28;46359;-65
2021/12/02 11:56:10;;;;;;;1.83;1.03;;;8.00;63.70;;;;;;5072251;27;46237;-66
2021/12/02 11:58:37;;;;;;;3.67;0.90;;;7.90;63.60;;;;;;5072666;28;46362;-67
2021/12/02 12:01:04;;;;;;;3.57;1.13;;;8.00;63.70;;;;;;5072436;28;46283;-65
2021/12/02 12:03:35;;;;;;;4.83;1.83;;;7.90;63.60;;;;;;5071453;28;46330;-66
2021/12/02 12:06:29;;;;;;;2.27;1.00;;;8.00;63.70;;;;;;5075948;28;46346;-66
2021/12/02 12:08:57;;;;;;;2.13;1.00;;;7.90;62.70;;;;;;5064795;28;46568;-66
2021/12/02 12:11:35;;;;;;;4.43;1.80;;;8.00;62.80;;;;;;5070983;27;49158;-66
2021/12/02 12:14:07;;;;;;;3.63;0.87;;;7.80;62.90;;;;;;5071083;28;45819;-66
2021/12/02 12:16:45;;;;;;;2.20;0.90;;;7.90;62.80;;;;;;5071222;28;46319;-65
2021/12/02 12:19:29;;;;;;;5.67;1.03;;;7.90;62.70;;;;;;5073142;28;46369;-65
2021/12/02 12:22:00;;;;;;;2.53;1.10;;;8.00;62.50;;;;;;5073891;28;48050;-65
2021/12/02 12:24:54;;;;;;;1.60;0.87;;;8.20;62.00;;;;;;5067156;28;46338;-65
2021/12/02 12:27:22;;;;;;;1.90;0.80;;;8.40;61.70;;;;;;5077949;28;46402;-65
2021/12/02 12:30:10;;;;;;;1.30;0.80;;;8.50;61.80;;;;;;5068033;27;46701;-66
2021/12/02 12:38:27;;;;;;;2.20;1.00;;;8.10;62.20;;;;;;5071354;28;45778;-67
2021/12/02 12:41:12;;;;;;;2.63;0.97;;;8.10;62.30;;;;;;5076050;28;45931;-67
2021/12/02 12:43:49;;;;;;;2.23;1.10;;;8.10;62.30;;;;;;5069065;28;48163;-66
2021/12/02 12:46:24;;;;;;;2.47;1.10;;;8.10;62.30;;;;;;5068844;28;46454;-65
2021/12/02 12:48:51;;;;;;;1.50;0.90;;;8.00;62.30;;;;;;5072053;28;46277;-65
2021/12/02 12:51:26;;;;;;;2.00;0.97;;;8.10;62.30;;;;;;5085446;27;46376;-68
2021/12/02 12:53:54;;;;;;;1.87;1.00;;;8.20;62.40;;;;;;5072657;28;47211;-66
2021/12/02 12:56:40;;;;;;;2.57;1.10;;;8.20;62.30;;;;;;5087794;27;46401;-66
2021/12/02 12:59:08;;;;;;;2.50;0.80;;;8.10;62.50;;;;;;5075931;28;46321;-66
2021/12/02 13:01:34;;;;;;;6.20;1.17;;;8.00;62.30;;;;;;5077286;28;46394;-66
2021/12/02 13:04:13;;;;;;;4.03;1.17;;;8.00;62.80;;;;;;5067155;28;48742;-66
2021/12/02 13:07:00;;;;;;;1.70;1.07;;;7.80;62.70;;;;;;5066797;28;46515;-66
2021/12/02 13:12:21;;;;;;;3.00;1.20;;;7.70;62.90;;;;;;5072612;28;46374;-66
2021/12/02 13:14:50;;;;;;;2.60;1.10;;;7.70;62.70;;;;;;5074606;28;47972;-67
2021/12/02 13:17:48;;;;;;;3.07;1.17;;;7.70;62.40;;;;;;5067688;28;46607;-66
2021/12/02 13:20:45;;;;;;;1.80;1.00;;;7.70;62.40;;;;;;5076137;28;46446;-66
2021/12/02 13:23:17;;;;;;;1.77;1.10;;;7.80;62.20;;;;;;5068055;28;46352;-67
2021/12/02 13:25:50;;;;;;;2.63;1.10;;;7.80;62.20;;;;;;5076280;28;49040;-67
2021/12/02 13:28:21;;;;;;;2.90;1.10;;;7.80;62.10;;;;;;5073993;28;46482;-68
2021/12/02 13:30:49;;;;;;;4.00;1.60;;;7.70;62.30;;;;;;5072593;28;46350;-66
2021/12/02 13:33:15;;;;;;;1.57;0.83;;;7.60;62.30;;;;;;5075654;28;46673;-68
2021/12/02 13:35:41;;;;;;;1.70;0.80;;;7.30;61.60;;;;;;5068278;27;47191;-67
2021/12/02 13:38:07;;;;;;;2.37;1.10;;;7.00;62.20;;;;;;5069247;28;46376;-67
2021/12/02 13:40:35;;;;;;;1.77;0.80;;;6.80;62.60;;;;;;5072384;28;46499;-66
2021/12/02 13:43:01;;;;;;;2.40;0.90;;;6.60;62.50;;;;;;5068228;28;46618;-65
2021/12/02 13:45:31;;;;;;;1.87;0.90;;;6.60;63.00;;;;;;5069423;28;46394;-66
2021/12/02 13:48:13;;;;;;;2.70;0.80;;;6.40;63.90;;;;;;5072371;28;45850;-65
2021/12/02 13:50:47;;;;;;;2.10;0.70;;;6.30;64.50;;;;;;5071106;27;45850;-65
2021/12/02 13:53:12;;;;;;;0.90;0.60;;;5.90;65.00;;;;;;5069382;28;46315;-65
2021/12/02 13:55:41;;;;;;;1.30;0.67;;;4.50;67.90;;;;;;5068285;27;46395;-66
2021/12/02 14:00:42;;;;;;;1.57;0.90;;;3.30;72.20;;;;;;5066889;28;46012;-66